.
WxDataArchive / Data Records for 2007-04-11
2007-04-10 April 2007 2007-04-12

Data Records for Wednesday, 11 April 2007

Time	Temp	Chill	HIndex	Humid	Dewpt	 Wind 	HiWind	WindDir	Rain 	Barom 
-----	----	-----	------	-----	-----	------	------	-------	-----	----- 
00:00	36.5	32.4	36.5	58	23.1	5	10	90	0.00	29.911 
00:05	36.3	33.0	36.3	58	23.0	4	10	112	0.00	29.908 
00:10	36.0	32.7	36.0	58	22.7	4	13	112	0.00	29.907 
00:15	35.9	32.6	35.9	58	22.6	4	10	90	0.00	29.902 
00:20	35.8	31.5	35.8	58	22.5	5	12	90	0.00	29.901 
00:25	35.6	31.3	35.6	57	21.9	5	12	112	0.00	29.898 
00:30	35.6	31.3	35.6	57	21.9	5	12	112	0.00	29.898 
00:35	35.8	31.5	35.8	56	21.7	5	12	90	0.00	29.898 
00:40	35.8	30.8	35.8	55	21.2	6	13	90	0.00	29.897 
00:45	35.9	30.9	35.9	55	21.3	6	13	90	0.00	29.898 
00:50	36.0	31.0	36.0	54	21.0	6	12	90	0.00	29.897 
00:55	36.0	31.0	36.0	54	21.0	6	13	90	0.00	29.896 
01:00	36.0	31.8	36.0	54	21.0	5	13	112	0.00	29.890 
01:05	36.0	31.0	36.0	53	20.5	6	13	90	0.00	29.887 
01:10	36.0	31.8	36.0	52	20.1	5	13	112	0.00	29.886 
01:15	36.2	31.2	36.2	51	19.8	6	15	112	0.00	29.885 
01:20	36.3	32.1	36.3	52	20.4	5	11	112	0.00	29.881 
01:25	36.3	33.0	36.3	52	20.4	4	10	90	0.00	29.872 
01:30	36.2	31.2	36.2	51	19.8	6	12	90	0.00	29.871 
01:35	36.2	31.2	36.2	52	20.3	6	11	112	0.00	29.867 
01:40	36.2	31.2	36.2	51	19.8	6	12	90	0.00	29.866 
01:45	36.2	32.0	36.2	51	19.8	5	11	112	0.00	29.861 
01:50	36.3	30.1	36.3	49	19.0	8	14	112	0.00	29.857 
01:55	36.3	30.1	36.3	49	19.0	8	16	90	0.00	29.855 
02:00	36.3	31.4	36.3	47	18.0	6	16	112	0.00	29.854 
02:05	36.3	32.1	36.3	48	18.5	5	13	112	0.00	29.856 
02:10	36.5	31.6	36.5	48	18.7	6	18	112	0.00	29.853 
02:15	36.5	31.6	36.5	48	18.7	6	13	112	0.00	29.853 
02:20	36.5	31.6	36.5	47	18.2	6	14	112	0.00	29.853 
02:25	36.5	32.4	36.5	48	18.7	5	12	112	0.00	29.855 
02:30	36.5	32.4	36.5	48	18.7	5	12	112	0.00	29.853 
02:35	36.3	32.1	36.3	48	18.5	5	14	90	0.00	29.856 
02:40	36.3	32.1	36.3	48	18.5	5	12	112	0.00	29.858 
02:45	36.3	32.1	36.3	48	18.5	5	10	90	0.00	29.859 
02:50	36.3	33.0	36.3	48	18.5	4	9	112	0.00	29.853 
02:55	36.3	32.1	36.3	49	19.0	5	12	112	0.00	29.844 
03:00	36.2	32.0	36.2	48	18.4	5	12	90	0.00	29.841 
03:05	36.3	32.1	36.3	49	19.0	5	11	112	0.00	29.838 
03:10	36.3	32.1	36.3	48	18.5	5	11	112	0.00	29.838 
03:15	36.3	32.1	36.3	49	19.0	5	12	112	0.00	29.839 
03:20	36.3	32.1	36.3	49	19.0	5	13	112	0.00	29.838 
03:25	36.3	32.1	36.3	49	19.0	5	12	112	0.00	29.838 
03:30	36.3	33.0	36.3	49	19.0	4	7	112	0.00	29.841 
03:35	36.5	31.6	36.5	49	19.2	6	12	112	0.00	29.845 
03:40	36.5	31.6	36.5	49	19.2	6	13	90	0.00	29.842 
03:45	36.6	31.0	36.6	48	18.8	7	14	90	0.00	29.839 
03:50	36.6	31.0	36.6	49	19.3	7	16	112	0.00	29.833 
03:55	36.5	32.4	36.5	50	19.6	5	15	112	0.00	29.825 
04:00	36.5	32.4	36.5	50	19.6	5	11	112	0.00	29.823 
04:05	36.5	30.9	36.5	50	19.6	7	16	112	0.00	29.820 
04:10	36.5	30.9	36.5	50	19.6	7	15	112	0.00	29.816 
04:15	36.5	31.6	36.5	50	19.6	6	12	112	0.00	29.809 
04:20	36.3	32.1	36.3	51	19.9	5	13	112	0.00	29.807 
04:25	36.3	32.1	36.3	51	19.9	5	10	112	0.00	29.807 
04:30	36.3	32.1	36.3	52	20.4	5	16	112	0.00	29.802 
04:35	36.2	32.9	36.2	53	20.7	4	10	112	0.00	29.793 
04:40	36.2	32.0	36.2	53	20.7	5	10	112	0.00	29.792 
04:45	36.0	31.0	36.0	53	20.5	6	12	112	0.00	29.793 
04:50	36.0	30.3	36.0	53	20.5	7	14	112	0.00	29.790 
04:55	36.0	31.8	36.0	54	21.0	5	15	112	0.00	29.785 
05:00	35.9	30.9	35.9	57	22.2	6	13	112	0.00	29.780 
05:05	35.8	30.8	35.8	57	22.1	6	15	112	0.00	29.780 
05:10	35.8	30.1	35.8	58	22.5	7	16	112	0.00	29.777 
05:15	35.6	30.5	35.6	59	22.7	6	14	112	0.00	29.776 
05:20	35.3	28.9	35.3	60	22.8	8	19	112	0.00	29.771 
05:25	34.9	29.0	34.9	66	24.7	7	17	112	0.00	29.765 
05:30	33.8	26.5	33.8	74	26.4	9	16	112	0.00	29.762 
05:35	32.9	26.6	32.9	77	26.5	7	15	112	0.00	29.753 
05:40	32.9	25.9	32.9	76	26.2	8	18	90	0.00	29.749 
05:45	33.2	25.7	33.2	75	26.2	9	18	112	0.00	29.747 
05:50	33.4	25.5	33.4	74	26.0	10	18	112	0.00	29.746 
05:55	33.4	26.0	33.4	75	26.3	9	18	112	0.00	29.745 
06:00	33.1	26.2	33.1	78	27.0	8	20	112	0.00	29.743 
06:05	32.8	25.8	32.8	79	27.0	8	22	112	0.00	29.745 
06:10	32.7	25.7	32.7	81	27.5	8	16	112	0.00	29.748 
06:15	32.5	28.7	32.5	82	27.6	4	10	112	0.00	29.749 
06:20	32.5	26.1	32.5	81	27.3	7	15	112	0.00	29.745 
06:25	32.7	27.9	32.7	82	27.8	5	13	90	0.00	29.746 
06:30	32.7	27.1	32.7	81	27.5	6	11	112	0.00	29.746 
06:35	32.8	28.0	32.8	81	27.6	5	15	112	0.00	29.741 
06:40	32.8	25.8	32.8	82	27.9	8	17	112	0.00	29.742 
06:45	32.7	27.1	32.7	82	27.8	6	13	112	0.00	29.739 
06:50	32.7	27.1	32.7	84	28.4	6	13	112	0.00	29.736 
06:55	32.5	26.8	32.5	85	28.5	6	10	112	0.00	29.737 
07:00	32.5	26.8	32.5	85	28.5	6	13	112	0.00	29.733 
07:05	32.4	26.7	32.4	86	28.7	6	11	112	0.00	29.727 
07:10	32.4	25.3	32.4	86	28.7	8	14	112	0.00	29.726 
07:15	32.2	24.5	32.2	86	28.5	9	20	90	0.00	29.722 
07:20	32.2	25.7	32.2	87	28.8	7	16	112	0.00	29.718 
07:25	32.1	25.6	32.1	88	29.0	7	17	112	0.00	29.710 
07:30	32.2	25.7	32.2	88	29.1	7	17	112	0.00	29.709 
07:35	32.2	25.1	32.2	87	28.8	8	18	112	0.00	29.703 
07:40	32.2	24.5	32.2	87	28.8	9	19	112	0.00	29.696 
07:45	32.4	24.8	32.4	87	29.0	9	21	112	0.00	29.689 
07:50	32.4	24.8	32.4	86	28.7	9	19	90	0.00	29.688 
07:55	32.5	25.5	32.5	86	28.8	8	17	90	0.00	29.683 
08:00	32.5	25.5	32.5	85	28.5	8	16	112	0.00	29.686 
08:05	32.7	25.7	32.7	85	28.7	8	15	112	0.00	29.688 
08:10	32.7	26.3	32.7	86	29.0	7	18	112	0.00	29.687 
08:15	32.7	25.7	32.7	87	29.3	8	16	112	0.00	29.682 
08:20	32.7	26.3	32.7	87	29.3	7	15	112	0.00	29.676 
08:25	32.7	26.3	32.7	88	29.5	7	18	112	0.00	29.671 
08:30	32.7	26.3	32.7	88	29.5	7	15	112	0.00	29.663 
08:35	32.7	26.3	32.7	88	29.5	7	16	112	0.00	29.658 
08:40	32.8	25.2	32.8	88	29.6	9	17	112	0.00	29.657 
08:45	32.8	26.5	32.8	88	29.6	7	20	112	0.00	29.654 
08:50	32.9	25.9	32.9	88	29.7	8	20	112	0.00	29.653 
08:55	32.9	25.9	32.9	88	29.7	8	16	112	0.00	29.646 
09:00	32.9	25.9	32.9	88	29.7	8	20	112	0.00	29.643 
09:05	32.9	26.6	32.9	89	30.0	7	19	112	0.00	29.643 
09:10	32.9	25.4	32.9	89	30.0	9	18	112	0.00	29.641 
09:15	32.9	25.4	32.9	89	30.0	9	19	112	0.00	29.638 
09:20	32.9	25.9	32.9	90	30.3	8	14	112	0.01	29.630 
09:25	32.9	24.8	32.9	90	30.3	10	16	112	0.02	29.629 
09:30	32.9	26.6	32.9	90	30.3	7	16	112	0.01	29.625 
09:35	32.8	26.5	32.8	91	30.5	7	16	112	0.02	29.627 
09:40	32.9	25.9	32.9	91	30.6	8	15	112	0.00	29.620 
09:45	32.8	26.5	32.8	91	30.5	7	15	112	0.01	29.613 
09:50	32.8	26.5	32.8	91	30.5	7	14	112	0.01	29.613 
09:55	32.8	25.8	32.8	91	30.5	8	15	90	0.01	29.611 
10:00	32.8	26.5	32.8	92	30.7	7	16	112	0.01	29.611 
10:05	32.9	25.9	32.9	92	30.8	8	15	112	0.01	29.612 
10:10	32.9	25.4	32.9	92	30.8	9	16	112	0.02	29.613 
10:15	32.9	25.9	32.9	92	30.8	8	13	112	0.01	29.611 
10:20	32.9	25.9	32.9	92	30.8	8	17	112	0.02	29.612 
10:25	33.1	26.2	33.1	92	31.0	8	15	112	0.01	29.602 
10:30	33.1	25.6	33.1	92	31.0	9	16	112	0.02	29.599 
10:35	33.1	26.2	33.1	92	31.0	8	14	112	0.02	29.596 
10:40	33.1	26.8	33.1	92	31.0	7	17	112	0.01	29.591 
10:45	33.1	26.2	33.1	92	31.0	8	17	112	0.00	29.586 
10:50	33.1	26.2	33.1	92	31.0	8	16	112	0.01	29.588 
10:55	33.1	26.2	33.1	93	31.3	8	14	112	0.02	29.591 
11:00	33.2	26.3	33.2	93	31.4	8	16	112	0.01	29.587 
11:05	33.2	27.7	33.2	93	31.4	6	14	90	0.02	29.580 
11:10	33.2	26.9	33.2	93	31.4	7	14	112	0.02	29.582 
11:15	33.4	26.6	33.4	93	31.6	8	15	90	0.02	29.579 
11:20	33.5	26.7	33.5	93	31.7	8	15	90	0.01	29.569 
11:25	33.5	27.3	33.5	94	32.0	7	16	112	0.02	29.565 
11:30	33.5	27.3	33.5	94	32.0	7	18	90	0.03	29.553 
11:35	33.7	27.5	33.7	94	32.2	7	12	90	0.01	29.551 
11:40	33.7	27.5	33.7	94	32.2	7	13	112	0.02	29.552 
11:45	33.8	27.0	33.8	94	32.3	8	15	112	0.01	29.540 
11:50	34.0	28.6	34.0	94	32.5	6	14	112	0.01	29.538 
11:55	34.1	28.0	34.1	94	32.6	7	15	112	0.01	29.543 
12:00	34.3	28.3	34.3	94	32.8	7	16	112	0.01	29.536 
12:05	34.4	29.1	34.4	94	32.9	6	14	112	0.01	29.534 
12:10	34.6	28.6	34.6	94	33.1	7	14	112	0.01	29.527 
12:15	34.7	29.4	34.7	94	33.2	6	14	90	0.01	29.526 
12:20	34.9	29.0	34.9	94	33.4	7	15	90	0.01	29.519 
12:25	35.0	28.5	35.0	98	34.5	8	17	112	0.00	29.514 
12:30	35.2	30.8	35.2	94	33.6	5	11	112	0.01	29.518 
12:35	35.3	28.9	35.3	94	33.7	8	14	90	0.01	29.504 
12:40	35.3	30.2	35.3	94	33.7	6	13	90	0.01	29.508 
12:45	35.5	30.4	35.5	95	34.2	6	13	90	0.01	29.502 
12:50	35.6	31.3	35.6	95	34.3	5	10	112	0.01	29.500 
12:55	35.8	30.8	35.8	95	34.5	6	15	112	0.00	29.500 
13:00	35.9	32.6	35.9	95	34.6	4	8	90	0.01	29.494 
13:05	36.2	32.0	36.2	95	34.9	5	10	112	0.01	29.490 
13:10	36.5	32.4	36.5	96	35.5	5	11	90	0.01	29.490 
13:15	36.6	31.7	36.6	96	35.6	6	13	90	0.01	29.487 
13:20	36.9	31.4	36.9	96	35.9	7	12	112	0.01	29.489 
13:25	37.0	32.9	37.0	96	36.0	5	10	112	0.00	29.485 
13:30	37.2	32.4	37.2	96	36.2	6	15	112	0.02	29.484 
13:35	37.2	33.2	37.2	96	36.2	5	10	90	0.01	29.475 
13:40	37.5	32.8	37.5	96	36.5	6	12	112	0.00	29.469 
13:45	37.8	33.1	37.8	96	36.8	6	14	112	0.01	29.467 
13:50	37.8	34.8	37.8	96	36.8	4	9	90	0.00	29.467 
13:55	37.9	34.9	37.9	96	36.9	4	10	112	0.00	29.463 
14:00	38.0	35.0	38.0	96	37.0	4	8	112	0.01	29.458 
14:05	38.2	34.4	38.2	96	37.2	5	12	112	0.01	29.451 
14:10	38.3	34.5	38.3	96	37.3	5	11	112	0.00	29.449 
14:15	38.5	34.7	38.5	96	37.5	5	10	112	0.01	29.440 
14:20	38.6	34.8	38.6	96	37.6	5	10	90	0.00	29.438 
14:25	38.6	34.1	38.6	96	37.6	6	10	112	0.01	29.436 
14:30	38.9	35.2	38.9	96	37.9	5	13	112	0.00	29.431 
14:35	39.1	35.4	39.1	96	38.1	5	11	112	0.00	29.422 
14:40	39.2	35.5	39.2	96	38.2	5	10	112	0.00	29.419 
14:45	39.3	35.7	39.3	96	38.3	5	11	112	0.01	29.405 
14:50	39.5	36.7	39.5	96	38.5	4	9	112	0.00	29.401 
14:55	39.6	36.0	39.6	97	38.8	5	11	112	0.00	29.401 
15:00	39.8	37.1	39.8	97	39.0	4	12	90	0.00	29.393 
15:05	39.9	35.6	39.9	97	39.1	6	13	112	0.00	29.399 
15:10	39.9	36.4	39.9	97	39.1	5	11	90	0.00	29.390 
15:15	40.1	35.9	40.1	97	39.3	6	11	112	0.00	29.388 
15:20	40.1	35.9	40.1	97	39.3	6	13	112	0.01	29.388 
15:25	40.2	37.5	40.2	97	39.4	4	11	112	0.00	29.385 
15:30	40.3	36.8	40.3	97	39.5	5	13	112	0.00	29.384 
15:35	40.5	37.1	40.5	97	39.7	5	13	112	0.00	29.383 
15:40	40.5	37.9	40.5	97	39.7	4	12	112	0.00	29.379 
15:45	40.5	37.1	40.5	97	39.7	5	12	112	0.01	29.372 
15:50	40.6	37.2	40.6	97	39.8	5	10	112	0.01	29.369 
15:55	40.8	37.4	40.8	97	40.0	5	12	112	0.01	29.369 
16:00	40.9	38.4	40.9	97	40.1	4	7	112	0.01	29.369 
16:05	41.1	38.6	41.1	97	40.3	4	10	112	0.01	29.371 
16:10	41.2	37.9	41.2	97	40.4	5	11	90	0.03	29.368 
16:15	41.3	38.8	41.3	97	40.5	4	10	112	0.00	29.362 
16:20	41.5	38.2	41.5	97	40.7	5	10	112	0.02	29.362 
16:25	41.8	37.9	41.8	97	41.0	6	11	112	0.03	29.359 
16:30	41.9	38.7	41.9	97	41.1	5	10	112	0.01	29.356 
16:35	42.1	38.3	42.1	97	41.3	6	12	112	0.01	29.354 
16:40	42.1	39.7	42.1	97	41.3	4	10	112	0.01	29.356 
16:45	42.2	39.1	42.2	97	41.4	5	13	112	0.01	29.359 
16:50	42.3	39.2	42.3	97	41.5	5	10	112	0.01	29.364 
16:55	42.3	39.2	42.3	97	41.5	5	7	112	0.02	29.367 
17:00	42.2	38.4	42.2	97	41.4	6	12	112	0.01	29.364 
17:05	42.2	39.1	42.2	97	41.4	5	11	112	0.02	29.359 
17:10	42.1	39.7	42.1	97	41.3	4	11	112	0.02	29.344 
17:15	42.1	38.3	42.1	97	41.3	6	12	112	0.01	29.324 
17:20	42.1	38.9	42.1	97	41.3	5	12	112	0.00	29.344 
17:25	42.1	39.7	42.1	97	41.3	4	10	90	0.01	29.341 
17:30	41.9	38.7	41.9	97	41.1	5	10	112	0.00	29.338 
17:35	41.8	37.9	41.8	97	41.0	6	11	112	0.00	29.331 
17:40	41.8	37.9	41.8	97	41.0	6	14	112	0.01	29.297 
17:45	41.8	38.6	41.8	97	41.0	5	12	112	0.00	29.305 
17:50	42.1	38.3	42.1	97	41.3	6	12	112	0.00	29.313 
17:55	42.3	40.0	42.3	98	41.8	4	9	90	0.00	29.318 
18:00	42.5	39.4	42.5	98	42.0	5	10	112	0.00	29.320 
18:05	42.5	39.4	42.5	98	42.0	5	11	112	0.00	29.322 
18:10	42.5	42.5	42.5	98	42.0	3	7	112	0.00	29.330 
18:15	42.5	42.5	42.5	98	42.0	3	6	112	0.00	29.326 
18:20	42.6	42.6	42.6	98	42.1	3	6	112	0.00	29.327 
18:25	42.6	42.6	42.6	98	42.1	3	7	112	0.00	29.325 
18:30	42.6	42.6	42.6	98	42.1	2	6	112	0.00	29.321 
18:35	42.6	42.6	42.6	98	42.1	2	6	112	0.00	29.324 
18:40	42.6	42.6	42.6	98	42.1	2	6	112	0.00	29.322 
18:45	42.6	42.6	42.6	98	42.1	2	5	112	0.00	29.315 
18:50	42.8	42.8	42.8	98	42.3	2	4	90	0.00	29.323 
18:55	42.9	42.9	42.9	98	42.4	2	4	112	0.00	29.313 
19:00	43.1	43.1	43.1	98	42.6	3	6	112	0.00	29.307 
19:05	43.2	43.2	43.2	98	42.7	2	5	112	0.00	29.307 
19:10	43.2	43.2	43.2	98	42.7	2	4	90	0.00	29.319 
19:15	43.2	43.2	43.2	98	42.7	1	3	90	0.00	29.322 
19:20	43.2	43.2	43.2	98	42.7	0	2	90	0.00	29.324 
19:25	43.3	43.3	43.3	98	42.8	1	3	68	0.00	29.337 
19:30	43.3	43.3	43.3	98	42.8	1	3	270	0.00	29.340 
19:35	43.5	43.5	43.5	98	43.0	1	3	338	0.01	29.331 
19:40	43.2	43.2	43.2	98	42.7	2	4	112	0.00	29.324 
19:45	43.1	43.1	43.1	98	42.6	0	2	90	0.00	29.323 
19:50	43.1	43.1	43.1	98	42.6	1	2	90	0.00	29.325 
19:55	43.1	43.1	43.1	98	42.6	0	2	90	0.03	29.336 
20:00	42.9	42.9	42.9	98	42.4	0	1	90	0.02	29.338 
20:05	43.5	43.5	43.5	98	43.0	1	5	248	0.03	29.341 
20:10	43.9	43.9	43.9	98	43.4	0	2	180	0.00	29.342 
20:15	44.1	44.1	44.1	98	43.6	1	4	248	0.00	29.343 
20:20	45.1	45.1	45.1	98	44.6	3	5	248	0.00	29.350 
20:25	45.5	45.5	45.5	98	45.0	3	6	248	0.01	29.348 
20:30	45.5	45.5	45.5	98	45.0	2	5	248	0.02	29.348 
20:35	45.7	45.7	45.7	98	45.2	1	4	248	0.01	29.342 
20:40	45.5	45.5	45.5	98	45.0	2	4	248	0.01	29.347 
20:45	45.5	45.5	45.5	98	45.0	2	4	248	0.01	29.352 
20:50	45.5	45.5	45.5	98	45.0	2	4	248	0.02	29.353 
20:55	45.4	45.4	45.4	98	44.9	2	4	248	0.02	29.353 
21:00	45.4	45.4	45.4	98	44.9	1	4	248	0.02	29.353 
21:05	45.2	45.2	45.2	98	44.7	1	3	248	0.01	29.352 
21:10	45.2	45.2	45.2	98	44.7	0	2	225	0.01	29.344 
21:15	45.1	45.1	45.1	98	44.6	1	3	225	0.01	29.342 
21:20	44.9	44.9	44.9	97	44.1	0	1	225	0.00	29.338 
21:25	44.8	44.8	44.8	97	44.0	0	3	225	0.00	29.336 
21:30	44.8	44.8	44.8	97	44.0	0	1	225	0.00	29.330 
21:35	44.6	44.6	44.6	97	43.8	1	3	225	0.00	29.337 
21:40	44.5	44.5	44.5	97	43.7	0	2	225	0.00	29.322 
21:45	44.5	44.5	44.5	97	43.7	0	2	225	0.00	29.324 
21:50	44.3	44.3	44.3	97	43.5	0	2	225	0.00	29.329 
21:55	44.2	44.2	44.2	97	43.4	0	2	225	0.00	29.338 
22:00	44.1	44.1	44.1	97	43.3	0	3	225	0.00	29.338 
22:05	44.1	44.1	44.1	97	43.3	1	3	248	0.00	29.339 
22:10	43.9	43.9	43.9	97	43.1	1	3	248	0.00	29.341 
22:15	43.9	43.9	43.9	97	43.1	2	4	248	0.00	29.340 
22:20	43.8	43.8	43.8	97	43.0	1	3	248	0.00	29.341 
22:25	43.8	43.8	43.8	97	43.0	2	5	248	0.00	29.346 
22:30	43.8	43.8	43.8	97	43.0	2	5	248	0.00	29.348 
22:35	43.9	43.9	43.9	97	43.1	3	10	248	0.00	29.354 
22:40	44.2	44.2	44.2	97	43.4	3	6	248	0.00	29.355 
22:45	44.3	44.3	44.3	97	43.5	3	7	248	0.00	29.354 
22:50	44.5	42.5	44.5	97	43.7	4	14	248	0.00	29.352 
22:55	44.5	42.5	44.5	97	43.7	4	9	248	0.00	29.354 
23:00	44.3	44.3	44.3	96	43.2	3	7	248	0.00	29.356 
23:05	44.2	44.2	44.2	96	43.1	3	6	248	0.00	29.354 
23:10	44.1	44.1	44.1	96	43.0	3	7	248	0.00	29.355 
23:15	44.1	44.1	44.1	96	43.0	3	10	248	0.00	29.357 
23:20	44.1	44.1	44.1	95	42.8	3	7	248	0.00	29.359 
23:25	43.9	43.9	43.9	95	42.6	2	5	248	0.00	29.361 
23:30	43.9	43.9	43.9	95	42.6	2	5	248	0.00	29.362 
23:35	44.1	44.1	44.1	95	42.8	3	6	248	0.00	29.365 
23:40	44.1	44.1	44.1	95	42.8	3	7	248	0.00	29.367 
23:45	44.2	44.2	44.2	95	42.9	3	6	248	0.00	29.369 
23:50	44.3	44.3	44.3	95	43.0	3	6	248	0.00	29.370 
23:55	44.6	44.6	44.6	94	43.0	3	7	248	0.00	29.372 

CoCoRaHS
IN-AL-39
A2 Web Hosting
Creative Commons License
GoDaddy
Look for:

loaded 2017-12-13 02:50:17 • last modified 2010-11-18 10:43:29
Privacy PolicyDisclaimer
• wx.awcolley.com is powered by PmWiki v.2002016 •
• all content (unless otherwise noted) © 2017 A W Colley